createdAt,value
2023-02-02T00:01:33.003Z,81.33
2023-02-02T00:04:01.225Z,81.40
2023-02-02T00:06:31.300Z,81.40
2023-02-02T00:09:01.307Z,81.48
2023-02-02T00:11:29.563Z,81.32
2023-02-02T00:13:57.520Z,81.23
2023-02-02T00:16:28.712Z,81.33
2023-02-02T00:18:59.361Z,81.18
2023-02-02T00:21:28.233Z,81.10
2023-02-02T00:23:56.195Z,81.22
2023-02-02T00:26:24.728Z,81.16
2023-02-02T00:28:53.086Z,81.11
2023-02-02T00:31:21.140Z,81.09
2023-02-02T00:33:50.200Z,80.84
2023-02-02T00:36:19.479Z,81.07
2023-02-02T00:38:48.934Z,81.00
2023-02-02T00:41:17.299Z,81.05
2023-02-02T00:43:46.945Z,81.04
2023-02-02T00:46:19.365Z,80.86
2023-02-02T00:48:47.441Z,80.90
2023-02-02T00:51:15.409Z,80.95
2023-02-02T00:53:43.282Z,80.77
2023-02-02T00:56:11.383Z,80.78
2023-02-02T00:58:39.370Z,80.49
2023-02-02T01:01:18.464Z,80.54
2023-02-02T01:03:46.910Z,80.64
2023-02-02T01:06:16.091Z,80.46
2023-02-02T01:08:44.350Z,80.41
2023-02-02T01:11:12.368Z,80.25
2023-02-02T01:13:40.425Z,80.34
2023-02-02T01:16:08.554Z,80.17
2023-02-02T01:18:37.001Z,80.29
2023-02-02T01:21:08.204Z,80.00
2023-02-02T01:23:37.296Z,79.96
2023-02-02T01:26:08.661Z,79.90
2023-02-02T01:28:37.380Z,79.77
2023-02-02T01:31:08.221Z,79.89
2023-02-02T01:33:36.313Z,79.69
2023-02-02T01:36:06.816Z,79.74
2023-02-02T01:38:35.313Z,79.87
2023-02-02T01:41:07.322Z,79.81
2023-02-02T01:43:41.729Z,79.89
2023-02-02T01:46:21.022Z,80.00
2023-02-02T01:49:03.179Z,79.63
2023-02-02T01:51:52.116Z,79.47
2023-02-02T01:54:39.233Z,79.39
2023-02-02T01:57:12.788Z,79.36
2023-02-02T01:59:42.034Z,79.20
2023-02-02T02:02:13.063Z,79.30
2023-02-02T02:04:42.649Z,79.29
2023-02-02T02:07:11.299Z,79.23
2023-02-02T02:09:39.299Z,79.27
2023-02-02T02:12:15.725Z,79.20
2023-02-02T02:15:06.958Z,79.29
2023-02-02T02:17:53.921Z,78.93
2023-02-02T02:21:05.130Z,78.74
2023-02-02T02:24:17.702Z,78.82
2023-02-02T02:26:56.704Z,78.90
2023-02-02T02:29:51.032Z,78.64
2023-02-02T02:32:37.734Z,78.76
2023-02-02T02:35:13.115Z,78.78
2023-02-02T02:37:51.327Z,78.98
2023-02-02T02:40:25.544Z,78.81
2023-02-02T02:42:59.926Z,78.67
2023-02-02T02:45:28.344Z,78.55
2023-02-02T02:47:56.644Z,78.53
2023-02-02T02:50:24.599Z,78.37
2023-02-02T02:53:04.435Z,78.41
2023-02-02T02:55:47.746Z,78.30
2023-02-02T02:58:21.158Z,78.19
2023-02-02T03:01:08.176Z,78.38
2023-02-02T03:03:51.540Z,78.45
2023-02-02T03:06:46.220Z,78.27
2023-02-02T03:09:20.110Z,78.22
2023-02-02T03:11:48.339Z,78.10
2023-02-02T03:14:16.739Z,77.93
2023-02-02T03:16:44.750Z,78.04
2023-02-02T03:19:13.092Z,77.79
2023-02-02T03:21:41.140Z,77.74
2023-02-02T03:24:09.350Z,77.56
2023-02-02T03:26:37.878Z,77.55
2023-02-02T03:29:06.308Z,77.43
2023-02-02T03:31:37.307Z,77.39
2023-02-02T03:34:05.856Z,77.36
2023-02-02T03:36:34.121Z,77.38
2023-02-02T03:39:02.798Z,77.45
2023-02-02T03:41:30.684Z,77.13
2023-02-02T03:43:58.723Z,77.09
2023-02-02T03:46:27.166Z,76.92
2023-02-02T03:48:56.031Z,76.72
2023-02-02T03:51:24.258Z,76.86
2023-02-02T03:53:52.453Z,76.75
2023-02-02T03:56:20.729Z,76.87
2023-02-02T03:58:48.690Z,76.68
2023-02-02T04:01:16.794Z,76.76
2023-02-02T04:03:46.409Z,76.63
2023-02-02T04:06:14.491Z,76.76
2023-02-02T04:08:45.864Z,76.88
2023-02-02T04:11:14.117Z,76.66
2023-02-02T04:13:45.670Z,76.56
2023-02-02T04:16:15.196Z,76.42
2023-02-02T04:18:43.205Z,76.51
2023-02-02T04:21:11.421Z,76.32
2023-02-02T04:23:39.497Z,76.02
2023-02-02T04:26:07.500Z,76.36
2023-02-02T04:28:35.926Z,76.38
2023-02-02T04:31:03.956Z,75.95
2023-02-02T04:33:32.075Z,76.32
2023-02-02T04:36:00.319Z,76.12
2023-02-02T04:38:28.552Z,76.28
2023-02-02T04:40:56.793Z,76.19
2023-02-02T04:43:24.718Z,76.18
2023-02-02T04:45:57.378Z,76.09
2023-02-02T04:48:25.717Z,76.11
2023-02-02T04:51:01.188Z,76.03
2023-02-02T04:53:29.857Z,75.81
2023-02-02T04:55:58.563Z,75.91
2023-02-02T04:58:27.359Z,76.03
2023-02-02T05:00:55.302Z,75.86
2023-02-02T05:03:23.831Z,75.96
2023-02-02T05:05:51.950Z,75.83
2023-02-02T05:08:21.371Z,75.94
2023-02-02T05:10:50.488Z,75.84
2023-02-02T05:13:18.777Z,75.80
2023-02-02T05:15:47.012Z,75.67
2023-02-02T05:18:15.185Z,75.74
2023-02-02T05:20:43.389Z,76.00
2023-02-02T05:23:11.515Z,75.87
2023-02-02T05:25:39.811Z,75.63
2023-02-02T05:28:07.800Z,75.80
2023-02-02T05:30:36.025Z,75.55
2023-02-02T05:33:04.367Z,75.53
2023-02-02T05:35:32.535Z,75.53
2023-02-02T05:38:00.394Z,75.58
2023-02-02T05:40:28.760Z,75.53
2023-02-02T05:42:56.995Z,75.76
2023-02-02T05:45:25.263Z,75.61
2023-02-02T05:47:55.161Z,75.59
2023-02-02T05:50:23.261Z,75.60
2023-02-02T05:52:51.507Z,75.75
2023-02-02T05:55:20.177Z,75.83
2023-02-02T05:57:48.316Z,75.40
2023-02-02T06:00:19.867Z,75.52
2023-02-02T06:02:48.325Z,75.38
2023-02-02T06:05:16.702Z,75.40
2023-02-02T06:07:44.741Z,75.56
2023-02-02T06:10:12.760Z,75.58
2023-02-02T06:12:40.590Z,75.72
2023-02-02T06:15:08.995Z,75.72
2023-02-02T06:17:37.190Z,75.97
2023-02-02T06:20:05.819Z,75.80
2023-02-02T06:22:33.937Z,76.13
2023-02-02T06:25:04.375Z,76.34
2023-02-02T06:27:32.753Z,77.01
2023-02-02T06:30:00.583Z,77.15
2023-02-02T06:32:31.440Z,77.32
2023-02-02T06:34:59.348Z,77.41
2023-02-02T06:37:29.639Z,77.69
2023-02-02T06:39:58.854Z,77.55
2023-02-02T06:42:26.791Z,77.72
2023-02-02T06:44:54.757Z,77.86
2023-02-02T06:47:22.744Z,77.99
2023-02-02T06:49:51.230Z,77.83
2023-02-02T06:52:19.078Z,77.75
2023-02-02T06:54:47.168Z,77.94
2023-02-02T06:57:15.187Z,77.64
2023-02-02T06:59:43.186Z,77.70
2023-02-02T07:02:13.358Z,77.76
2023-02-02T07:04:41.218Z,77.76
2023-02-02T07:07:09.205Z,77.68
2023-02-02T07:09:37.270Z,77.66
2023-02-02T07:12:05.497Z,77.95
2023-02-02T07:14:33.530Z,77.86
2023-02-02T07:17:01.718Z,77.77
2023-02-02T07:19:29.777Z,77.98
2023-02-02T07:21:57.905Z,77.88
2023-02-02T07:24:27.617Z,77.48
2023-02-02T07:26:55.898Z,77.40
2023-02-02T07:29:24.051Z,77.33
2023-02-02T07:31:52.262Z,77.43
2023-02-02T07:34:20.364Z,77.69
2023-02-02T07:36:48.350Z,77.63
2023-02-02T07:39:16.454Z,77.65
2023-02-02T07:41:44.313Z,77.86
2023-02-02T07:44:15.947Z,77.92
2023-02-02T07:46:45.129Z,77.71
2023-02-02T07:49:15.304Z,77.55
2023-02-02T07:51:47.548Z,77.58
2023-02-02T07:54:16.743Z,77.32
2023-02-02T07:56:44.878Z,77.33
2023-02-02T07:59:12.806Z,77.41
2023-02-02T08:01:40.983Z,77.57
2023-02-02T08:04:08.871Z,77.47
2023-02-02T08:06:38.521Z,77.41
2023-02-02T08:09:08.474Z,77.49
2023-02-02T08:11:38.135Z,77.22
2023-02-02T08:14:06.964Z,77.06
2023-02-02T08:16:35.201Z,76.88
2023-02-02T08:19:03.665Z,76.79
2023-02-02T08:21:35.291Z,76.81
2023-02-02T08:24:04.847Z,76.72
2023-02-02T08:26:33.239Z,76.73
2023-02-02T08:29:07.413Z,76.76
2023-02-02T08:31:38.211Z,76.65
2023-02-02T08:34:06.682Z,76.70
2023-02-02T08:36:37.387Z,76.73
2023-02-02T08:39:07.733Z,76.73
2023-02-02T08:41:37.107Z,76.55
2023-02-02T08:44:11.451Z,76.54
2023-02-02T08:46:40.231Z,76.43
2023-02-02T08:49:12.219Z,76.39
2023-02-02T08:51:40.840Z,76.22
2023-02-02T08:54:09.211Z,76.28
2023-02-02T08:56:37.231Z,76.09
2023-02-02T08:59:06.001Z,75.95
2023-02-02T09:01:35.259Z,76.03
2023-02-02T09:04:07.166Z,76.03
2023-02-02T09:06:40.033Z,76.16
2023-02-02T09:09:10.250Z,76.01
2023-02-02T09:11:38.411Z,75.91
2023-02-02T09:14:06.962Z,75.86
2023-02-02T09:16:35.792Z,75.85
2023-02-02T09:19:04.466Z,75.78
2023-02-02T09:21:37.568Z,75.54
2023-02-02T09:24:13.515Z,75.30
2023-02-02T09:26:43.416Z,75.42
2023-02-02T09:29:13.717Z,75.14
2023-02-02T09:31:43.241Z,75.40
2023-02-02T09:34:13.416Z,75.45
2023-02-02T09:36:42.368Z,75.43
2023-02-02T09:39:15.148Z,75.58
2023-02-02T09:42:21.328Z,75.58
2023-02-02T09:44:56.599Z,75.89
2023-02-02T09:47:43.949Z,76.04
2023-02-02T09:50:23.855Z,76.08
2023-02-02T09:52:55.676Z,76.17
2023-02-02T09:55:44.520Z,76.09
2023-02-02T09:58:23.207Z,76.13
2023-02-02T10:01:15.441Z,76.26
2023-02-02T10:04:05.642Z,76.36
2023-02-02T10:06:42.920Z,76.97
2023-02-02T10:09:18.207Z,77.02
2023-02-02T10:11:56.941Z,77.47
2023-02-02T10:14:30.081Z,77.52
2023-02-02T10:17:01.204Z,77.65
2023-02-02T10:19:30.899Z,77.78
2023-02-02T10:22:11.954Z,77.99
2023-02-02T10:24:40.353Z,77.87
2023-02-02T10:27:24.160Z,77.67
2023-02-02T10:30:02.422Z,77.84
2023-02-02T10:32:49.746Z,77.85
2023-02-02T10:35:27.675Z,77.89
2023-02-02T10:38:20.375Z,77.93
2023-02-02T10:41:10.602Z,78.07
2023-02-02T10:44:04.464Z,78.24
2023-02-02T10:46:42.027Z,78.13
2023-02-02T10:49:13.191Z,78.00
2023-02-02T10:51:41.752Z,78.17
2023-02-02T10:54:26.983Z,78.13
2023-02-02T10:56:58.443Z,78.08
2023-02-02T10:59:32.147Z,77.96
2023-02-02T11:02:11.571Z,77.92
2023-02-02T11:05:02.285Z,77.97
2023-02-02T11:07:30.450Z,78.07
2023-02-02T11:09:58.354Z,78.16
2023-02-02T11:12:33.241Z,78.31
2023-02-02T11:15:25.624Z,78.09
2023-02-02T11:17:53.780Z,78.23
2023-02-02T11:20:38.963Z,77.89
2023-02-02T11:23:09.957Z,77.16
2023-02-02T11:25:38.881Z,77.13
2023-02-02T11:28:19.929Z,76.87
2023-02-02T11:30:52.852Z,76.65
2023-02-02T11:33:35.699Z,76.53
2023-02-02T11:36:21.453Z,76.64
2023-02-02T11:38:49.416Z,76.49
2023-02-02T11:41:22.049Z,76.43
2023-02-02T11:43:52.655Z,76.51
2023-02-02T11:46:28.796Z,76.54
2023-02-02T11:49:03.426Z,76.39
2023-02-02T11:51:32.036Z,76.38
2023-02-02T11:54:16.042Z,76.34
2023-02-02T11:56:50.463Z,75.98
2023-02-02T11:59:40.893Z,75.95
2023-02-02T12:02:25.908Z,76.06
2023-02-02T12:04:56.654Z,76.09
2023-02-02T12:07:28.635Z,76.04
2023-02-02T12:10:04.393Z,76.13
2023-02-02T12:12:37.574Z,76.25
2023-02-02T12:15:28.909Z,76.27
2023-02-02T12:18:07.972Z,75.99
2023-02-02T12:20:38.789Z,76.09
2023-02-02T12:23:37.348Z,76.09
2023-02-02T12:26:27.014Z,76.25
2023-02-02T12:29:07.095Z,76.69
2023-02-02T12:31:46.924Z,76.86
2023-02-02T12:34:30.375Z,77.00
2023-02-02T12:37:04.459Z,77.31
2023-02-02T12:39:55.485Z,77.29
2023-02-02T12:42:26.522Z,77.59
2023-02-02T12:45:16.455Z,77.50
2023-02-02T12:47:48.416Z,77.33
2023-02-02T12:50:35.609Z,77.44
2023-02-02T12:53:18.850Z,77.46
2023-02-02T12:56:16.119Z,77.61
2023-02-02T12:59:02.178Z,77.81
2023-02-02T13:01:38.880Z,77.54
2023-02-02T13:04:09.681Z,77.57
2023-02-02T13:06:56.633Z,77.50
2023-02-02T13:09:38.000Z,77.77
2023-02-02T13:12:11.024Z,77.66
2023-02-02T13:14:46.270Z,77.71
2023-02-02T13:17:21.587Z,77.76
2023-02-02T13:19:53.820Z,77.72
2023-02-02T13:22:26.955Z,77.61
2023-02-02T13:25:00.141Z,77.66
2023-02-02T13:27:30.776Z,77.60
2023-02-02T13:30:18.133Z,77.72
2023-02-02T13:32:46.858Z,77.58
2023-02-02T13:35:22.483Z,77.45
2023-02-02T13:37:56.453Z,77.36
2023-02-02T13:40:39.560Z,77.36
2023-02-02T13:43:33.083Z,77.21
2023-02-02T13:46:01.057Z,77.24
2023-02-02T13:48:47.667Z,76.98
2023-02-02T13:51:37.608Z,76.90
2023-02-02T13:54:27.511Z,76.85
2023-02-02T13:57:10.885Z,76.91
2023-02-02T14:00:18.736Z,76.75
2023-02-02T14:02:58.652Z,76.83
2023-02-02T14:05:38.940Z,76.94
2023-02-02T14:08:16.091Z,76.77
2023-02-02T14:10:53.265Z,76.89
2023-02-02T14:13:45.614Z,76.75
2023-02-02T14:16:41.553Z,76.52
2023-02-02T14:19:16.103Z,76.24
2023-02-02T14:21:44.020Z,76.33
2023-02-02T14:24:27.523Z,76.21
2023-02-02T14:27:00.391Z,76.09
2023-02-02T14:29:31.705Z,76.07
2023-02-02T14:32:07.033Z,76.24
2023-02-02T14:34:45.248Z,75.97
2023-02-02T14:37:20.853Z,75.64
2023-02-02T14:40:01.138Z,75.57
2023-02-02T14:42:53.698Z,75.78
2023-02-02T14:45:31.844Z,75.55
2023-02-02T14:48:11.650Z,75.57
2023-02-02T14:50:49.567Z,75.61
2023-02-02T14:53:20.192Z,75.46
2023-02-02T14:56:12.329Z,75.59
2023-02-02T14:58:44.273Z,75.59
2023-02-02T15:01:18.358Z,75.69
2023-02-02T15:04:21.728Z,75.66
2023-02-02T15:06:52.812Z,75.65
2023-02-02T15:09:21.036Z,75.83
2023-02-02T15:12:09.120Z,75.42
2023-02-02T15:14:43.331Z,75.08
2023-02-02T15:17:39.477Z,74.76
2023-02-02T15:20:33.837Z,74.75
2023-02-02T15:23:16.039Z,74.67
2023-02-02T15:26:09.233Z,74.78
2023-02-02T15:28:48.114Z,74.61
2023-02-02T15:31:23.021Z,74.49
2023-02-02T15:33:52.858Z,74.56
2023-02-02T15:36:25.195Z,74.21
2023-02-02T15:38:55.558Z,74.23
2023-02-02T15:41:26.784Z,74.24
2023-02-02T15:43:55.104Z,74.43
2023-02-02T15:46:29.311Z,74.36
2023-02-02T15:49:33.836Z,74.18
2023-02-02T15:52:19.529Z,73.97
2023-02-02T15:54:53.307Z,73.90
2023-02-02T15:57:42.510Z,73.86
2023-02-02T16:00:39.814Z,73.72
2023-02-02T16:03:14.650Z,73.57
2023-02-02T16:05:56.413Z,73.25
2023-02-02T16:08:28.013Z,72.78
2023-02-02T16:11:25.803Z,72.30
2023-02-02T16:14:10.885Z,72.29
2023-02-02T16:16:40.419Z,72.31
2023-02-02T16:19:08.527Z,72.14
2023-02-02T16:21:41.314Z,72.30
2023-02-02T16:24:19.587Z,72.45
2023-02-02T16:26:48.711Z,72.55
2023-02-02T16:29:18.692Z,72.32
2023-02-02T16:31:47.858Z,72.00
2023-02-02T16:34:17.268Z,72.01
2023-02-02T16:37:04.756Z,72.30
2023-02-02T16:39:32.766Z,71.83
2023-02-02T16:42:12.193Z,71.69
2023-02-02T16:44:43.726Z,71.96
2023-02-02T16:47:33.384Z,71.73
2023-02-02T16:50:10.735Z,72.07
2023-02-02T16:52:50.607Z,71.52
2023-02-02T16:55:20.283Z,71.65
2023-02-02T16:57:50.037Z,71.31
2023-02-02T17:00:24.783Z,70.90
2023-02-02T17:03:03.726Z,70.58
2023-02-02T17:05:59.150Z,70.32
2023-02-02T17:08:33.207Z,69.94
2023-02-02T17:11:13.034Z,69.80
2023-02-02T17:13:41.817Z,69.85
2023-02-02T17:16:16.886Z,69.59
2023-02-02T17:18:45.304Z,69.20
2023-02-02T17:21:21.118Z,69.06
2023-02-02T17:23:51.980Z,68.93
2023-02-02T17:26:20.741Z,68.49
2023-02-02T17:28:49.604Z,68.66
2023-02-02T17:31:17.767Z,68.16
2023-02-02T17:33:46.259Z,68.06
2023-02-02T17:36:14.822Z,67.93
2023-02-02T17:38:43.401Z,67.82
2023-02-02T17:41:14.393Z,67.89
2023-02-02T17:43:43.158Z,67.88
2023-02-02T17:46:13.475Z,68.16
2023-02-02T17:48:41.929Z,68.15
2023-02-02T17:51:15.253Z,68.33
2023-02-02T17:53:44.804Z,68.51
2023-02-02T17:56:13.156Z,68.53
2023-02-02T17:58:41.620Z,68.51
2023-02-02T18:01:11.579Z,68.29
2023-02-02T18:03:41.091Z,68.27
2023-02-02T18:06:10.991Z,68.17
2023-02-02T18:08:39.051Z,68.36
2023-02-02T18:11:07.164Z,68.51
2023-02-02T18:13:35.564Z,68.63
2023-02-02T18:16:07.023Z,68.11
2023-02-02T18:18:35.668Z,68.03
2023-02-02T18:21:08.389Z,68.22
2023-02-02T18:23:37.948Z,68.48
2023-02-02T18:26:12.714Z,68.23
2023-02-02T18:28:41.444Z,68.17
2023-02-02T18:31:12.443Z,68.15
2023-02-02T18:33:41.748Z,67.85
2023-02-02T18:36:15.455Z,68.31
2023-02-02T18:38:47.007Z,68.18
2023-02-02T18:41:16.891Z,67.77
2023-02-02T18:43:48.468Z,67.81
2023-02-02T18:46:17.725Z,67.39
2023-02-02T18:48:46.355Z,67.31
2023-02-02T18:51:16.794Z,66.96
2023-02-02T18:53:46.938Z,67.11
2023-02-02T18:56:15.626Z,66.65
2023-02-02T18:58:43.970Z,66.84
2023-02-02T19:01:17.623Z,67.13
2023-02-02T19:03:51.370Z,66.99
2023-02-02T19:06:39.116Z,67.02
2023-02-02T19:09:14.202Z,66.96
2023-02-02T19:11:45.342Z,66.72
2023-02-02T19:14:25.562Z,66.82
2023-02-02T19:16:57.020Z,67.36
2023-02-02T19:19:34.814Z,66.82
2023-02-02T19:22:23.584Z,66.95
2023-02-02T19:24:51.687Z,66.80
2023-02-02T19:27:22.323Z,66.75
2023-02-02T19:29:56.577Z,66.78
2023-02-02T19:32:27.111Z,66.97
2023-02-02T19:35:02.184Z,66.81
2023-02-02T19:37:32.928Z,66.95
2023-02-02T19:40:07.463Z,66.98
2023-02-02T19:42:36.608Z,67.10
2023-02-02T19:45:22.090Z,66.93
2023-02-02T19:47:52.537Z,66.88
2023-02-02T19:50:22.765Z,67.09
2023-02-02T19:52:51.461Z,67.00
2023-02-02T19:55:25.798Z,67.07
2023-02-02T19:57:58.670Z,67.45
2023-02-02T20:00:29.741Z,67.32
2023-02-02T20:03:02.944Z,67.32
2023-02-02T20:05:47.284Z,67.32
2023-02-02T20:08:42.847Z,67.44
2023-02-02T20:11:38.725Z,67.60
2023-02-02T20:14:30.572Z,67.60
2023-02-02T20:17:29.079Z,67.70
2023-02-02T20:19:57.293Z,67.97
2023-02-02T20:22:32.794Z,68.06
2023-02-02T20:25:08.238Z,68.02
2023-02-02T20:27:38.134Z,68.10
2023-02-02T20:30:39.047Z,67.91
2023-02-02T20:33:20.891Z,68.05
2023-02-02T20:35:49.619Z,68.05
2023-02-02T20:38:29.380Z,68.09
2023-02-02T20:40:58.125Z,68.01
2023-02-02T20:43:26.937Z,68.08
2023-02-02T20:45:58.355Z,68.23
2023-02-02T20:48:27.955Z,68.31
2023-02-02T20:50:56.133Z,68.16
2023-02-02T20:53:24.371Z,68.30
2023-02-02T20:55:57.527Z,68.50
2023-02-02T20:58:25.943Z,68.29
2023-02-02T21:00:55.183Z,68.58
2023-02-02T21:03:23.526Z,68.47
2023-02-02T21:05:51.665Z,68.57
2023-02-02T21:08:19.734Z,68.46
2023-02-02T21:10:47.887Z,68.59
2023-02-02T21:13:15.945Z,68.53
2023-02-02T21:15:44.313Z,68.63
2023-02-02T21:18:12.673Z,68.86
2023-02-02T21:20:40.950Z,68.84
2023-02-02T21:23:10.311Z,68.90
2023-02-02T21:25:38.401Z,68.95
2023-02-02T21:28:06.591Z,69.08
2023-02-02T21:30:35.613Z,69.22
2023-02-02T21:33:05.743Z,69.09
2023-02-02T21:35:34.664Z,69.25
2023-02-02T21:38:11.024Z,69.14
2023-02-02T21:40:40.274Z,68.98
2023-02-02T21:43:15.601Z,68.97
2023-02-02T21:45:45.491Z,69.20
2023-02-02T21:48:19.462Z,69.03
2023-02-02T21:50:48.049Z,69.15
2023-02-02T21:53:24.597Z,69.24
2023-02-02T21:55:58.592Z,69.09
2023-02-02T21:58:33.375Z,69.19
2023-02-02T22:01:16.946Z,69.26
2023-02-02T22:03:47.117Z,69.52
2023-02-02T22:06:21.313Z,69.51
2023-02-02T22:08:50.253Z,69.64
2023-02-02T22:11:18.596Z,69.83
2023-02-02T22:13:46.601Z,69.65
2023-02-02T22:16:18.415Z,69.73
2023-02-02T22:18:47.381Z,69.81
2023-02-02T22:21:19.925Z,69.94
2023-02-02T22:23:48.966Z,69.99
2023-02-02T22:26:29.559Z,70.01
2023-02-02T22:28:57.932Z,70.08
2023-02-02T22:31:25.991Z,70.01
2023-02-02T22:33:54.482Z,70.11
2023-02-02T22:36:23.067Z,69.99
2023-02-02T22:38:51.143Z,70.07
2023-02-02T22:41:19.370Z,70.17
2023-02-02T22:43:47.418Z,70.27
2023-02-02T22:46:15.644Z,70.05
2023-02-02T22:48:43.780Z,70.18
2023-02-02T22:51:11.870Z,70.22
2023-02-02T22:53:40.001Z,70.22
2023-02-02T22:56:07.943Z,70.33
2023-02-02T22:58:36.134Z,70.32
2023-02-02T23:01:05.067Z,70.40
2023-02-02T23:03:33.085Z,70.61
2023-02-02T23:06:01.499Z,70.53
2023-02-02T23:08:29.574Z,70.81
2023-02-02T23:10:57.532Z,70.98
2023-02-02T23:13:25.584Z,71.08
2023-02-02T23:15:53.545Z,70.89
2023-02-02T23:18:22.330Z,71.05
2023-02-02T23:20:50.612Z,71.13
2023-02-02T23:23:18.700Z,70.94
2023-02-02T23:25:46.697Z,71.09
2023-02-02T23:28:14.759Z,71.11
2023-02-02T23:30:42.634Z,71.21
2023-02-02T23:33:10.567Z,71.32
2023-02-02T23:35:38.436Z,71.29
2023-02-02T23:38:06.489Z,71.43
2023-02-02T23:40:34.375Z,71.59
2023-02-02T23:43:02.325Z,71.50
2023-02-02T23:45:30.276Z,71.51
2023-02-02T23:47:58.461Z,71.54
2023-02-02T23:50:27.370Z,71.70
2023-02-02T23:52:55.612Z,71.76
2023-02-02T23:55:23.567Z,71.93
2023-02-02T23:57:51.548Z,72.00
